createdAt,value
2023-03-15T00:01:57.050Z,68.28
2023-03-15T00:04:11.077Z,69.05
2023-03-15T00:06:24.394Z,68.75
2023-03-15T00:08:37.619Z,68.25
2023-03-15T00:10:51.827Z,67.83
2023-03-15T00:13:05.510Z,67.93
2023-03-15T00:15:20.265Z,67.79
2023-03-15T00:17:35.937Z,67.85
2023-03-15T00:19:49.154Z,67.77
2023-03-15T00:22:02.544Z,66.82
2023-03-15T00:24:16.313Z,66.93
2023-03-15T00:26:29.326Z,67.20
2023-03-15T00:28:42.805Z,66.91
2023-03-15T00:31:05.995Z,67.30
2023-03-15T00:33:20.658Z,67.18
2023-03-15T00:35:34.797Z,66.83
2023-03-15T00:37:49.389Z,66.74
2023-03-15T00:40:03.327Z,66.53
2023-03-15T00:42:17.897Z,67.02
2023-03-15T00:44:32.119Z,67.77
2023-03-15T00:46:44.995Z,67.63
2023-03-15T00:48:58.687Z,67.38
2023-03-15T00:51:14.567Z,67.56
2023-03-15T00:53:27.799Z,67.70
2023-03-15T00:55:41.800Z,67.94
2023-03-15T00:57:55.398Z,67.12
2023-03-15T01:00:11.539Z,67.76
2023-03-15T01:02:25.285Z,67.91
2023-03-15T01:04:38.430Z,67.21
2023-03-15T01:06:52.021Z,67.95
2023-03-15T01:09:05.157Z,67.94
2023-03-15T01:11:19.615Z,67.46
2023-03-15T01:13:33.010Z,67.66
2023-03-15T01:15:48.647Z,67.66
2023-03-15T01:18:01.987Z,67.48
2023-03-15T01:20:17.716Z,67.56
2023-03-15T01:22:30.878Z,67.69
2023-03-15T01:24:44.187Z,67.59
2023-03-15T01:27:01.155Z,67.73
2023-03-15T01:29:14.827Z,67.95
2023-03-15T01:31:29.458Z,68.08
2023-03-15T01:33:42.947Z,68.12
2023-03-15T01:36:05.028Z,68.43
2023-03-15T01:38:19.050Z,68.55
2023-03-15T01:40:31.967Z,68.76
2023-03-15T01:43:17.287Z,69.02
2023-03-15T01:46:02.431Z,69.01
2023-03-15T01:48:18.448Z,69.27
2023-03-15T01:50:32.178Z,69.18
2023-03-15T01:52:47.576Z,69.31
2023-03-15T01:55:08.416Z,69.25
2023-03-15T01:57:26.252Z,69.39
2023-03-15T01:59:44.019Z,69.49
2023-03-15T02:01:58.529Z,69.67
2023-03-15T02:04:15.825Z,69.77
2023-03-15T02:06:30.488Z,69.74
2023-03-15T02:08:47.200Z,69.83
2023-03-15T02:11:01.670Z,69.97
2023-03-15T02:13:17.307Z,70.08
2023-03-15T02:15:30.405Z,70.24
2023-03-15T02:17:50.502Z,70.29
2023-03-15T02:20:15.144Z,70.45
2023-03-15T02:22:39.922Z,70.60
2023-03-15T02:25:00.508Z,70.88
2023-03-15T02:27:14.255Z,71.08
2023-03-15T02:29:29.908Z,71.15
2023-03-15T02:31:43.081Z,71.67
2023-03-15T02:33:58.291Z,71.56
2023-03-15T02:36:21.750Z,72.07
2023-03-15T02:38:35.942Z,72.07
2023-03-15T02:40:50.869Z,72.28
2023-03-15T02:43:06.769Z,72.10
2023-03-15T02:45:20.049Z,72.09
2023-03-15T02:47:36.312Z,72.18
2023-03-15T02:49:53.896Z,72.28
2023-03-15T02:52:07.241Z,72.37
2023-03-15T02:54:20.376Z,72.35
2023-03-15T02:56:34.809Z,72.45
2023-03-15T02:58:48.465Z,72.46
2023-03-15T03:01:02.134Z,72.64
2023-03-15T03:03:15.971Z,72.88
2023-03-15T03:05:29.651Z,72.91
2023-03-15T03:07:43.993Z,73.06
2023-03-15T03:09:57.010Z,72.94
2023-03-15T03:12:11.753Z,72.99
2023-03-15T03:14:26.695Z,73.04
2023-03-15T03:16:39.851Z,72.73
2023-03-15T03:18:53.176Z,72.45
2023-03-15T03:21:11.127Z,72.31
2023-03-15T03:23:26.951Z,71.99
2023-03-15T03:25:40.289Z,72.25
2023-03-15T03:27:53.459Z,72.18
2023-03-15T03:30:07.378Z,72.09
2023-03-15T03:32:21.770Z,72.49
2023-03-15T03:34:35.866Z,72.28
2023-03-15T03:36:49.707Z,72.54
2023-03-15T03:39:06.915Z,72.67
2023-03-15T03:41:20.490Z,72.41
2023-03-15T03:43:34.286Z,72.40
2023-03-15T03:45:47.935Z,72.45
2023-03-15T03:48:01.840Z,72.64
2023-03-15T03:50:17.556Z,72.81
2023-03-15T03:52:30.468Z,72.88
2023-03-15T03:54:51.340Z,73.10
2023-03-15T03:57:04.158Z,73.16
2023-03-15T03:59:19.849Z,73.27
2023-03-15T04:01:40.654Z,73.50
2023-03-15T04:03:54.714Z,73.58
2023-03-15T04:06:11.595Z,73.60
2023-03-15T04:08:28.629Z,73.45
2023-03-15T04:10:42.503Z,73.58
2023-03-15T04:12:56.676Z,73.78
2023-03-15T04:15:11.333Z,74.00
2023-03-15T04:17:24.453Z,73.76
2023-03-15T04:19:38.433Z,74.08
2023-03-15T04:21:53.607Z,74.52
2023-03-15T04:24:29.412Z,74.99
2023-03-15T04:26:48.984Z,75.44
2023-03-15T04:29:19.906Z,75.74
2023-03-15T04:32:02.907Z,75.98
2023-03-15T04:34:40.250Z,76.08
2023-03-15T04:37:15.169Z,76.10
2023-03-15T04:39:57.941Z,75.70
2023-03-15T04:42:31.164Z,75.57
2023-03-15T04:45:18.540Z,75.37
2023-03-15T04:47:34.311Z,75.33
2023-03-15T04:50:17.661Z,75.17
2023-03-15T04:52:54.144Z,74.98
2023-03-15T04:55:26.565Z,74.93
2023-03-15T04:58:02.883Z,74.94
2023-03-15T05:00:32.717Z,74.74
2023-03-15T05:03:08.716Z,74.81
2023-03-15T05:05:31.593Z,74.58
2023-03-15T05:08:13.925Z,74.56
2023-03-15T05:10:45.767Z,74.66
2023-03-15T05:13:13.001Z,74.64
2023-03-15T05:15:46.300Z,74.86
2023-03-15T05:18:31.169Z,74.93
2023-03-15T05:20:59.068Z,75.01
2023-03-15T05:23:30.281Z,75.09
2023-03-15T05:26:04.873Z,75.16
2023-03-15T05:28:34.827Z,75.26
2023-03-15T05:31:14.591Z,75.30
2023-03-15T05:33:51.372Z,75.26
2023-03-15T05:36:17.607Z,75.33
2023-03-15T05:38:54.967Z,75.10
2023-03-15T05:41:26.295Z,74.97
2023-03-15T05:44:05.782Z,74.83
2023-03-15T05:46:18.972Z,74.81
2023-03-15T05:48:55.351Z,74.92
2023-03-15T05:51:20.248Z,74.95
2023-03-15T05:54:09.604Z,75.00
2023-03-15T05:56:34.722Z,75.04
2023-03-15T05:58:54.669Z,75.07
2023-03-15T06:01:08.639Z,75.13
2023-03-15T06:03:45.202Z,75.25
2023-03-15T06:06:02.651Z,75.31
2023-03-15T06:08:21.379Z,75.32
2023-03-15T06:10:35.558Z,75.40
2023-03-15T06:12:51.677Z,75.31
2023-03-15T06:15:04.934Z,75.31
2023-03-15T06:17:18.390Z,75.04
2023-03-15T06:19:31.561Z,74.84
2023-03-15T06:21:46.045Z,74.77
2023-03-15T06:24:07.521Z,74.77
2023-03-15T06:26:20.789Z,74.91
2023-03-15T06:28:34.109Z,74.87
2023-03-15T06:30:47.383Z,74.71
2023-03-15T06:33:00.887Z,74.76
2023-03-15T06:35:16.061Z,74.69
2023-03-15T06:37:35.054Z,74.41
2023-03-15T06:39:49.046Z,74.21
2023-03-15T06:42:03.897Z,74.34
2023-03-15T06:44:18.541Z,74.31
2023-03-15T06:46:32.364Z,74.47
2023-03-15T06:48:45.817Z,74.57
2023-03-15T06:51:02.518Z,74.82
2023-03-15T06:53:15.819Z,74.73
2023-03-15T06:55:28.855Z,74.76
2023-03-15T06:57:44.309Z,74.60
2023-03-15T06:59:58.020Z,74.72
2023-03-15T07:02:16.788Z,74.77
2023-03-15T07:04:29.859Z,74.81
2023-03-15T07:06:42.601Z,74.92
2023-03-15T07:08:55.765Z,75.05
2023-03-15T07:11:09.440Z,75.10
2023-03-15T07:13:22.543Z,75.70
2023-03-15T07:15:35.221Z,74.90
2023-03-15T07:17:48.866Z,74.80
2023-03-15T07:20:02.143Z,74.70
2023-03-15T07:22:15.730Z,74.76
2023-03-15T07:24:29.493Z,74.85
2023-03-15T07:26:42.874Z,75.00
2023-03-15T07:28:55.583Z,75.18
2023-03-15T07:31:09.731Z,75.23
2023-03-15T07:33:23.563Z,76.95
2023-03-15T07:35:36.377Z,77.15
2023-03-15T07:37:49.470Z,78.58
2023-03-15T07:40:10.677Z,78.75
2023-03-15T07:42:23.719Z,79.54
2023-03-15T07:44:38.171Z,79.78
2023-03-15T07:46:51.042Z,79.43
2023-03-15T07:49:04.174Z,80.03
2023-03-15T07:51:17.071Z,80.98
2023-03-15T07:53:29.980Z,81.00
2023-03-15T07:55:43.089Z,80.57
2023-03-15T07:57:56.192Z,80.73
2023-03-15T08:00:13.630Z,80.93
2023-03-15T08:02:30.699Z,81.17
2023-03-15T08:04:44.536Z,80.96
2023-03-15T08:06:57.410Z,81.43
2023-03-15T08:09:10.377Z,81.97
2023-03-15T08:11:23.286Z,81.87
2023-03-15T08:13:36.278Z,81.85
2023-03-15T08:15:51.213Z,81.89
2023-03-15T08:18:05.964Z,81.89
2023-03-15T08:20:20.613Z,81.92
2023-03-15T08:22:33.763Z,81.78
2023-03-15T08:24:47.531Z,81.95
2023-03-15T08:27:01.332Z,81.97
2023-03-15T08:29:15.184Z,82.14
2023-03-15T08:31:29.357Z,82.07
2023-03-15T08:33:43.397Z,81.97
2023-03-15T08:36:00.337Z,82.12
2023-03-15T08:38:13.949Z,82.02
2023-03-15T08:40:31.156Z,82.09
2023-03-15T08:42:45.407Z,82.09
2023-03-15T08:45:00.778Z,81.80
2023-03-15T08:47:14.152Z,81.83
2023-03-15T08:49:27.476Z,81.91
2023-03-15T08:51:40.356Z,81.84
2023-03-15T08:53:53.264Z,81.97
2023-03-15T08:56:06.623Z,82.18
2023-03-15T08:58:19.800Z,82.62
2023-03-15T09:00:32.782Z,82.35
2023-03-15T09:02:45.697Z,82.16
2023-03-15T09:04:59.024Z,81.81
2023-03-15T09:07:13.777Z,81.63
2023-03-15T09:09:27.122Z,81.71
2023-03-15T09:11:40.039Z,81.65
2023-03-15T09:13:53.618Z,81.46
2023-03-15T09:16:06.822Z,81.55
2023-03-15T09:18:19.881Z,81.43
2023-03-15T09:20:33.312Z,81.54
2023-03-15T09:22:46.283Z,81.80
2023-03-15T09:24:59.085Z,81.60
2023-03-15T09:27:13.148Z,81.96
2023-03-15T09:29:26.111Z,82.27
2023-03-15T09:31:40.052Z,82.28
2023-03-15T09:33:52.839Z,82.29
2023-03-15T09:36:05.929Z,82.41
2023-03-15T09:38:19.051Z,82.63
2023-03-15T09:40:34.309Z,82.69
2023-03-15T09:43:03.351Z,82.40
2023-03-15T09:45:25.870Z,82.02
2023-03-15T09:47:50.342Z,81.91
2023-03-15T09:50:06.862Z,81.70
2023-03-15T09:52:32.861Z,81.80
2023-03-15T09:54:54.333Z,81.26
2023-03-15T09:57:12.843Z,80.97
2023-03-15T09:59:28.473Z,80.75
2023-03-15T10:01:45.430Z,80.09
2023-03-15T10:03:59.129Z,79.15
2023-03-15T10:06:20.642Z,78.69
2023-03-15T10:08:33.560Z,78.47
2023-03-15T10:10:53.139Z,78.53
2023-03-15T10:13:20.786Z,78.44
2023-03-15T10:15:48.275Z,78.77
2023-03-15T10:18:19.229Z,78.62
2023-03-15T10:20:36.100Z,78.48
2023-03-15T10:22:57.687Z,77.39
2023-03-15T10:25:18.619Z,77.29
2023-03-15T10:27:37.325Z,77.06
2023-03-15T10:29:51.464Z,76.50
2023-03-15T10:32:05.410Z,76.52
2023-03-15T10:34:19.625Z,76.51
2023-03-15T10:36:33.482Z,76.66
2023-03-15T10:38:49.458Z,76.74
2023-03-15T10:41:03.682Z,76.13
2023-03-15T10:43:29.435Z,75.87
2023-03-15T10:45:43.225Z,74.89
2023-03-15T10:48:00.689Z,75.26
2023-03-15T10:50:20.220Z,75.16
2023-03-15T10:52:50.431Z,75.03
2023-03-15T10:55:08.947Z,75.55
2023-03-15T10:57:23.917Z,75.50
2023-03-15T10:59:38.967Z,75.87
2023-03-15T11:01:55.101Z,76.13
2023-03-15T11:04:25.971Z,75.92
2023-03-15T11:06:47.463Z,76.01
2023-03-15T11:09:15.746Z,74.98
2023-03-15T11:11:29.969Z,74.89
2023-03-15T11:13:45.342Z,74.09
2023-03-15T11:16:06.686Z,73.85
2023-03-15T11:18:29.934Z,74.15
2023-03-15T11:20:45.097Z,74.37
2023-03-15T11:23:01.262Z,74.28
2023-03-15T11:25:19.108Z,74.31
2023-03-15T11:27:34.390Z,74.58
2023-03-15T11:29:53.034Z,74.78
2023-03-15T11:32:13.920Z,74.00
2023-03-15T11:34:40.654Z,74.16
2023-03-15T11:37:07.690Z,74.29
2023-03-15T11:39:33.119Z,73.45
2023-03-15T11:41:51.494Z,73.36
2023-03-15T11:44:16.220Z,73.25
2023-03-15T11:46:35.301Z,72.99
2023-03-15T11:48:51.712Z,73.19
2023-03-15T11:51:06.015Z,71.61
2023-03-15T11:53:20.699Z,72.20
2023-03-15T11:55:35.786Z,72.15
2023-03-15T11:57:50.761Z,72.14
2023-03-15T12:00:18.657Z,72.30
2023-03-15T12:02:55.222Z,72.50
2023-03-15T12:05:31.950Z,73.58
2023-03-15T12:08:04.111Z,74.23
2023-03-15T12:10:41.063Z,74.11
2023-03-15T12:13:00.932Z,74.25
2023-03-15T12:15:52.693Z,74.23
2023-03-15T12:18:07.701Z,73.91
2023-03-15T12:20:38.662Z,74.08
2023-03-15T12:22:58.283Z,74.03
2023-03-15T12:25:19.470Z,74.15
2023-03-15T12:27:34.350Z,74.10
2023-03-15T12:29:53.111Z,73.28
2023-03-15T12:32:15.889Z,74.16
2023-03-15T12:34:42.150Z,74.75
2023-03-15T12:37:00.198Z,75.22
2023-03-15T12:41:52.126Z,73.59
2023-03-15T12:44:27.237Z,73.51
2023-03-15T12:47:00.779Z,73.74
2023-03-15T12:49:18.205Z,73.64
2023-03-15T12:51:59.799Z,73.82
2023-03-15T12:54:19.644Z,73.90
2023-03-15T12:56:47.214Z,74.11
2023-03-15T12:59:03.354Z,74.12
2023-03-15T13:01:19.957Z,74.28
2023-03-15T13:03:37.522Z,73.90
2023-03-15T13:06:04.086Z,73.69
2023-03-15T13:08:26.625Z,73.63
2023-03-15T13:11:05.786Z,74.14
2023-03-15T13:13:40.286Z,74.48
2023-03-15T13:16:16.680Z,74.41
2023-03-15T13:18:35.637Z,74.31
2023-03-15T13:21:03.756Z,74.05
2023-03-15T13:26:07.216Z,74.12
2023-03-15T13:28:26.307Z,74.34
2023-03-15T13:30:44.877Z,74.34
2023-03-15T13:33:12.387Z,74.49
2023-03-15T13:35:25.770Z,74.84
2023-03-15T13:37:43.187Z,75.04
2023-03-15T13:40:10.136Z,75.32
2023-03-15T13:42:28.582Z,75.34
2023-03-15T13:44:41.511Z,75.61
2023-03-15T13:46:55.789Z,75.96
2023-03-15T13:49:08.988Z,76.06
2023-03-15T13:51:28.605Z,76.19
2023-03-15T13:53:49.989Z,76.27
2023-03-15T13:56:04.520Z,76.51
2023-03-15T13:58:19.527Z,76.52
2023-03-15T14:00:34.918Z,76.65
2023-03-15T14:02:55.282Z,76.86
2023-03-15T14:05:11.946Z,77.00
2023-03-15T14:07:32.937Z,77.14
2023-03-15T14:09:45.936Z,77.41
2023-03-15T14:12:10.279Z,77.58
2023-03-15T14:14:29.660Z,77.92
2023-03-15T14:17:03.721Z,78.93
2023-03-15T14:19:26.749Z,79.92
2023-03-15T14:21:40.681Z,79.75
2023-03-15T14:23:54.833Z,79.34
2023-03-15T14:26:20.631Z,78.91
2023-03-15T14:28:34.713Z,78.74
2023-03-15T14:30:54.806Z,78.68
2023-03-15T14:33:10.146Z,78.68
2023-03-15T14:35:29.562Z,78.40
2023-03-15T14:37:47.356Z,78.13
2023-03-15T14:40:16.947Z,78.28
2023-03-15T14:42:29.853Z,78.43
2023-03-15T14:44:43.184Z,78.50
2023-03-15T14:46:57.266Z,78.56
2023-03-15T14:49:10.764Z,78.73
2023-03-15T14:51:25.207Z,78.81
2023-03-15T14:53:40.691Z,78.83
2023-03-15T14:55:54.026Z,79.01
2023-03-15T14:58:07.547Z,79.07
2023-03-15T15:00:22.522Z,79.33
2023-03-15T15:02:36.225Z,79.36
2023-03-15T15:04:49.488Z,79.42
2023-03-15T15:07:04.241Z,79.56
2023-03-15T15:09:18.806Z,79.82
2023-03-15T15:11:32.061Z,80.06
2023-03-15T15:13:45.502Z,80.25
2023-03-15T15:15:59.986Z,80.49
2023-03-15T15:18:13.783Z,80.82
2023-03-15T15:20:30.483Z,80.95
2023-03-15T15:22:44.271Z,81.29
2023-03-15T15:24:57.840Z,81.79
2023-03-15T15:27:12.589Z,81.96
2023-03-15T15:29:26.394Z,81.94
2023-03-15T15:31:39.948Z,82.04
2023-03-15T15:33:53.560Z,82.24
2023-03-15T15:36:07.913Z,82.29
2023-03-15T15:38:22.257Z,82.40
2023-03-15T15:40:36.791Z,82.53
2023-03-15T15:42:50.578Z,82.33
2023-03-15T15:45:04.443Z,82.46
2023-03-15T15:47:17.667Z,82.73
2023-03-15T15:49:37.815Z,82.90
2023-03-15T15:51:53.231Z,83.13
2023-03-15T15:54:06.914Z,83.28
2023-03-15T15:56:19.980Z,83.20
2023-03-15T15:58:32.726Z,83.23
2023-03-15T16:00:46.495Z,83.18
2023-03-15T16:03:01.087Z,83.20
2023-03-15T16:05:15.853Z,83.51
2023-03-15T16:07:30.717Z,83.66
2023-03-15T16:09:44.780Z,83.71
2023-03-15T16:11:58.386Z,83.72
2023-03-15T16:14:14.575Z,83.78
2023-03-15T16:16:28.489Z,84.02
2023-03-15T16:18:41.236Z,84.09
2023-03-15T16:20:54.655Z,84.02
2023-03-15T16:23:08.937Z,84.00
2023-03-15T16:25:26.021Z,83.78
2023-03-15T16:27:38.905Z,83.77
2023-03-15T16:29:54.284Z,83.97
2023-03-15T16:32:17.610Z,84.24
2023-03-15T16:34:35.756Z,84.34
2023-03-15T16:36:50.686Z,84.36
2023-03-15T16:39:03.742Z,84.52
2023-03-15T16:41:19.856Z,84.66
2023-03-15T16:43:33.876Z,84.98
2023-03-15T16:45:47.536Z,85.17
2023-03-15T16:48:01.762Z,85.34
2023-03-15T16:50:16.658Z,85.62
2023-03-15T16:52:29.584Z,85.82
2023-03-15T16:54:44.949Z,85.81
2023-03-15T16:56:58.863Z,86.00
2023-03-15T16:59:14.847Z,85.88
2023-03-15T17:01:28.671Z,85.78
2023-03-15T17:03:41.540Z,86.20
2023-03-15T17:05:54.983Z,86.51
2023-03-15T17:08:07.959Z,86.69
2023-03-15T17:10:26.707Z,86.74
2023-03-15T17:12:40.560Z,86.95
2023-03-15T17:14:54.986Z,87.03
2023-03-15T17:17:08.784Z,87.04
2023-03-15T17:19:23.008Z,87.35
2023-03-15T17:21:38.777Z,87.05
2023-03-15T17:23:53.498Z,87.03
2023-03-15T17:26:07.127Z,87.32
2023-03-15T17:28:20.885Z,87.34
2023-03-15T17:30:36.365Z,87.26
2023-03-15T17:32:49.893Z,87.40
2023-03-15T17:35:03.169Z,87.47
2023-03-15T17:37:16.726Z,87.02
2023-03-15T17:39:30.577Z,86.38
2023-03-15T17:41:50.774Z,85.86
2023-03-15T17:44:04.148Z,85.23
2023-03-15T17:46:17.935Z,85.33
2023-03-15T17:48:31.303Z,85.50
2023-03-15T17:50:45.996Z,85.25
2023-03-15T17:53:01.773Z,84.16
2023-03-15T17:55:22.768Z,83.44
2023-03-15T17:57:38.387Z,82.90
2023-03-15T17:59:54.758Z,82.80
2023-03-15T18:02:07.996Z,82.12
2023-03-15T18:04:23.446Z,81.68
2023-03-15T18:06:36.600Z,81.52
2023-03-15T18:08:49.801Z,81.45
2023-03-15T18:11:03.258Z,80.82
2023-03-15T18:13:20.318Z,80.51
2023-03-15T18:15:34.021Z,80.19
2023-03-15T18:17:47.254Z,79.91
2023-03-15T18:20:00.938Z,79.98
2023-03-15T18:22:19.390Z,80.20
2023-03-15T18:24:32.913Z,80.06
2023-03-15T18:26:45.930Z,80.05
2023-03-15T18:28:58.960Z,79.47
2023-03-15T18:31:17.313Z,78.24
2023-03-15T18:33:31.540Z,78.13
2023-03-15T18:35:45.358Z,77.32
2023-03-15T18:37:59.339Z,77.14
2023-03-15T18:40:19.075Z,76.45
2023-03-15T18:42:32.235Z,76.41
2023-03-15T18:44:46.003Z,76.40
2023-03-15T18:46:59.259Z,75.76
2023-03-15T18:49:12.071Z,75.64
2023-03-15T18:51:26.841Z,75.64
2023-03-15T18:53:40.260Z,74.40
2023-03-15T18:55:53.213Z,74.87
2023-03-15T18:58:10.044Z,74.50
2023-03-15T19:00:27.537Z,73.79
2023-03-15T19:02:41.135Z,73.12
2023-03-15T19:04:54.164Z,73.92
2023-03-15T19:07:06.974Z,73.70
2023-03-15T19:09:19.827Z,72.91
2023-03-15T19:11:46.643Z,73.38
2023-03-15T19:13:59.493Z,73.12
2023-03-15T19:16:13.535Z,73.09
2023-03-15T19:18:27.173Z,72.72
2023-03-15T19:20:40.264Z,72.57
2023-03-15T19:22:53.616Z,72.37
2023-03-15T19:25:06.837Z,72.34
2023-03-15T19:27:19.718Z,72.74
2023-03-15T19:29:32.770Z,72.17
2023-03-15T19:31:46.661Z,71.24
2023-03-15T19:33:59.653Z,71.14
2023-03-15T19:36:14.185Z,70.83
2023-03-15T19:38:27.400Z,70.77
2023-03-15T19:40:40.878Z,70.23
2023-03-15T19:42:54.916Z,70.64
2023-03-15T19:45:08.237Z,70.61
2023-03-15T19:47:21.052Z,70.01
2023-03-15T19:49:33.884Z,70.05
2023-03-15T19:51:48.095Z,70.47
2023-03-15T19:54:00.970Z,69.57
2023-03-15T19:56:15.771Z,69.85
2023-03-15T19:58:28.805Z,70.11
2023-03-15T20:00:42.255Z,69.87
2023-03-15T20:02:55.004Z,68.51
2023-03-15T20:05:09.886Z,68.73
2023-03-15T20:07:23.317Z,68.44
2023-03-15T20:09:39.915Z,68.61
2023-03-15T20:11:53.258Z,68.50
2023-03-15T20:14:06.463Z,68.40
2023-03-15T20:16:20.455Z,68.93
2023-03-15T20:18:34.302Z,68.97
2023-03-15T20:20:47.352Z,68.47
2023-03-15T20:23:00.893Z,68.55
2023-03-15T20:25:15.149Z,67.84
2023-03-15T20:27:28.121Z,67.46
2023-03-15T20:29:41.050Z,67.35
2023-03-15T20:31:54.491Z,66.69
2023-03-15T20:34:10.214Z,66.94
2023-03-15T20:36:23.867Z,66.64
2023-03-15T20:38:38.329Z,66.99
2023-03-15T20:40:56.682Z,67.43
2023-03-15T20:43:11.271Z,67.35
2023-03-15T20:45:25.320Z,67.71
2023-03-15T20:47:39.149Z,67.48
2023-03-15T20:49:52.758Z,66.53
2023-03-15T20:52:06.298Z,67.37
2023-03-15T20:54:19.419Z,66.60
2023-03-15T20:56:35.366Z,67.20
2023-03-15T20:58:49.348Z,66.17
2023-03-15T21:01:11.249Z,66.21
2023-03-15T21:03:24.632Z,66.30
2023-03-15T21:05:38.166Z,66.05
2023-03-15T21:07:51.237Z,65.86
2023-03-15T21:10:04.769Z,66.59
2023-03-15T21:12:17.697Z,66.72
2023-03-15T21:14:31.818Z,66.59
2023-03-15T21:16:44.944Z,66.84
2023-03-15T21:18:58.841Z,66.92
2023-03-15T21:21:13.143Z,67.06
2023-03-15T21:23:26.211Z,66.47
2023-03-15T21:25:39.431Z,66.29
2023-03-15T21:27:53.188Z,64.83
2023-03-15T21:30:07.902Z,65.23
2023-03-15T21:32:21.188Z,65.51
2023-03-15T21:34:35.602Z,65.56
2023-03-15T21:36:49.526Z,65.19
2023-03-15T21:39:02.855Z,64.32
2023-03-15T21:41:16.474Z,64.58
2023-03-15T21:43:35.381Z,65.05
2023-03-15T21:45:49.405Z,64.84
2023-03-15T21:48:03.102Z,64.45
2023-03-15T21:50:17.515Z,64.89
2023-03-15T21:52:30.661Z,64.83
2023-03-15T21:54:44.021Z,64.37
2023-03-15T21:56:57.605Z,64.66
2023-03-15T21:59:11.593Z,64.05
2023-03-15T22:01:25.604Z,63.76
2023-03-15T22:03:40.561Z,63.61
2023-03-15T22:05:54.474Z,64.07
2023-03-15T22:08:07.495Z,64.51
2023-03-15T22:10:21.172Z,64.23
2023-03-15T22:12:34.502Z,64.48
2023-03-15T22:14:56.829Z,64.10
2023-03-15T22:17:21.833Z,64.09
2023-03-15T22:19:34.982Z,63.74
2023-03-15T22:21:48.213Z,62.62
2023-03-15T22:24:01.041Z,63.65
2023-03-15T22:26:14.062Z,64.18
2023-03-15T22:28:28.063Z,64.06
2023-03-15T22:30:41.141Z,63.61
2023-03-15T22:32:54.079Z,63.03
2023-03-15T22:35:07.090Z,62.98
2023-03-15T22:37:20.087Z,63.35
2023-03-15T22:39:33.871Z,63.26
2023-03-15T22:41:47.477Z,62.58
2023-03-15T22:44:01.509Z,62.40
2023-03-15T22:46:15.200Z,62.39
2023-03-15T22:48:28.238Z,63.01
2023-03-15T22:50:41.784Z,62.57
2023-03-15T22:52:56.685Z,62.47
2023-03-15T22:55:11.138Z,62.88
2023-03-15T22:57:24.942Z,63.18
2023-03-15T22:59:38.116Z,63.92
2023-03-15T23:01:51.329Z,63.36
2023-03-15T23:04:04.810Z,63.49
2023-03-15T23:06:18.219Z,63.84
2023-03-15T23:08:30.987Z,63.35
2023-03-15T23:10:44.556Z,63.46
2023-03-15T23:12:58.254Z,62.57
2023-03-15T23:15:13.189Z,63.01
2023-03-15T23:17:26.177Z,63.23
2023-03-15T23:19:39.564Z,62.96
2023-03-15T23:21:52.847Z,63.30
2023-03-15T23:24:06.136Z,63.25
2023-03-15T23:26:21.506Z,62.45
2023-03-15T23:28:34.826Z,63.12
2023-03-15T23:30:48.167Z,62.51
2023-03-15T23:33:01.826Z,62.19
2023-03-15T23:35:16.246Z,61.83
2023-03-15T23:37:29.778Z,61.56
2023-03-15T23:39:42.749Z,60.63
2023-03-15T23:41:59.019Z,61.02
2023-03-15T23:44:12.599Z,60.04
2023-03-15T23:46:26.456Z,59.61
2023-03-15T23:48:39.454Z,60.32
2023-03-15T23:50:54.681Z,60.52
2023-03-15T23:53:08.501Z,60.42
2023-03-15T23:55:21.689Z,59.27
2023-03-15T23:57:34.511Z,59.46
2023-03-15T23:59:47.736Z,59.95
